Time;durP1;ratioP1;P1;durP2;ratioP2;P2;SDS_P1;SDS_P2;PMS_P1;PMS_P2;Temp;Humidity;BMP_temperature;BMP_pressure;BME280_temperature;BME280_humidity;BME280_pressure;Samples;Min_cycle;Max_cycle;Signal;HPM_P1;HPM_P2
2022/08/08 00:05:39;;;;;;;1.02;0.43;;;18.50;87.20;;;;;;6647290;88;20089;-76
2022/08/08 00:15:45;;;;;;;1.10;0.60;;;18.30;89.20;;;;;;6644475;88;20185;-78
2022/08/08 00:25:51;;;;;;;0.85;0.40;;;18.20;90.80;;;;;;6636772;88;20208;-77
2022/08/08 00:36:22;;;;;;;0.85;0.43;;;18.10;91.90;;;;;;6627939;88;20700;-75
2022/08/08 00:46:44;;;;;;;0.60;0.30;;;18.00;92.60;;;;;;6624850;88;20702;-76
2022/08/08 00:57:39;;;;;;;0.60;0.35;;;17.90;93.90;;;;;;6643187;88;20209;-76
2022/08/08 01:08:14;;;;;;;0.80;0.40;;;17.90;94.70;;;;;;6625865;88;20186;-76
2022/08/08 01:18:23;;;;;;;0.62;0.30;;;17.70;96.20;;;;;;6631996;88;20324;-76
2022/08/08 01:28:48;;;;;;;0.52;0.30;;;17.40;97.50;;;;;;6630571;88;21013;-76
2022/08/08 01:39:08;;;;;;;0.90;0.47;;;17.20;99.00;;;;;;6637549;88;20608;-76
2022/08/08 01:49:16;;;;;;;1.12;0.40;;;17.10;99.90;;;;;;6629856;88;20742;-76
2022/08/08 01:59:48;;;;;;;1.33;0.70;;;17.20;99.90;;;;;;6633670;88;20197;-77
2022/08/08 02:09:54;;;;;;;1.10;0.50;;;17.10;99.90;;;;;;6632954;88;20524;-76
2022/08/08 02:20:15;;;;;;;1.25;0.68;;;17.10;99.90;;;;;;6631528;88;20214;-76
2022/08/08 02:30:19;;;;;;;1.10;0.50;;;17.10;99.90;;;;;;6633431;88;20221;-75
2022/08/08 02:40:58;;;;;;;1.20;0.60;;;16.90;99.90;;;;;;6636190;88;20296;-77
2022/08/08 02:51:21;;;;;;;1.02;0.47;;;16.60;99.90;;;;;;6631568;88;20799;-76
2022/08/08 03:01:57;;;;;;;0.85;0.50;;;16.50;99.90;;;;;;6632730;88;20193;-76
2022/08/08 03:12:29;;;;;;;0.77;0.40;;;16.40;99.90;;;;;;6634984;88;20664;-76
2022/08/08 03:22:31;;;;;;;0.95;0.50;;;16.40;99.90;;;;;;6635489;88;20233;-75
2022/08/08 03:42:51;;;;;;;1.50;0.70;;;16.10;99.90;;;;;;6622278;88;20189;-77
2022/08/08 03:52:52;;;;;;;1.58;0.70;;;15.90;99.90;;;;;;6629112;88;20707;-78
2022/08/08 04:02:55;;;;;;;0.95;0.50;;;15.70;99.90;;;;;;6640924;88;20202;-76
2022/08/08 04:12:56;;;;;;;1.70;0.80;;;15.70;99.90;;;;;;6637277;88;20192;-76
2022/08/08 04:22:57;;;;;;;1.05;0.50;;;15.50;99.90;;;;;;6638029;88;20220;-76
2022/08/08 04:32:57;;;;;;;1.40;0.55;;;15.60;99.90;;;;;;6644177;88;20193;-76
2022/08/08 04:42:58;;;;;;;1.13;0.47;;;15.50;99.90;;;;;;6630116;88;20188;-76
2022/08/08 04:52:58;;;;;;;1.25;0.70;;;15.50;99.90;;;;;;6633522;88;20566;-75
2022/08/08 05:02:59;;;;;;;0.90;0.60;;;15.50;99.90;;;;;;6634642;88;20205;-76
2022/08/08 05:13:01;;;;;;;1.45;0.75;;;15.50;99.90;;;;;;6638218;88;20174;-76
2022/08/08 05:23:01;;;;;;;1.15;0.75;;;15.40;99.90;;;;;;6635758;88;20248;-76
2022/08/08 05:33:02;;;;;;;2.83;0.93;;;15.60;99.90;;;;;;6631342;88;20758;-75
2022/08/08 05:43:06;;;;;;;1.20;0.60;;;15.60;99.90;;;;;;6643360;88;20621;-76
2022/08/08 05:53:07;;;;;;;1.80;1.00;;;15.70;99.90;;;;;;6627527;88;20226;-76
2022/08/08 06:03:14;;;;;;;1.50;0.88;;;15.90;99.90;;;;;;6633611;88;20261;-76
2022/08/08 06:13:15;;;;;;;1.50;0.90;;;16.50;99.90;;;;;;6625220;88;20596;-77
2022/08/08 06:23:16;;;;;;;1.85;0.90;;;17.00;99.90;;;;;;6626947;88;20222;-76
2022/08/08 06:33:19;;;;;;;1.75;0.95;;;17.50;99.90;;;;;;6644730;88;20647;-77
2022/08/08 06:43:21;;;;;;;1.45;0.85;;;17.80;99.90;;;;;;6635129;88;20207;-76
2022/08/08 06:53:23;;;;;;;1.48;0.90;;;18.40;99.90;;;;;;6626781;88;20271;-77
2022/08/08 07:03:47;;;;;;;2.17;1.05;;;18.90;99.90;;;;;;6609904;88;20417;-76
2022/08/08 07:13:52;;;;;;;1.97;1.10;;;19.90;99.90;;;;;;6640923;88;20201;-75
2022/08/08 07:24:06;;;;;;;1.67;1.00;;;20.30;99.90;;;;;;6635462;88;20631;-74
2022/08/08 07:34:08;;;;;;;1.20;0.80;;;21.20;99.90;;;;;;6643172;88;20190;-75
2022/08/08 07:44:10;;;;;;;1.62;0.90;;;21.90;99.40;;;;;;6602558;88;20676;-76
2022/08/08 07:54:29;;;;;;;1.77;1.05;;;22.20;98.20;;;;;;6616046;88;20225;-75
2022/08/08 08:04:34;;;;;;;1.65;1.00;;;23.40;96.70;;;;;;6635454;88;20189;-75
2022/08/08 08:15:02;;;;;;;1.40;0.90;;;23.60;94.70;;;;;;6627756;88;20324;-76
2022/08/08 08:25:02;;;;;;;1.90;0.70;;;24.10;94.00;;;;;;6634729;88;20243;-77
2022/08/08 08:35:04;;;;;;;1.23;0.70;;;24.90;92.60;;;;;;6630788;88;20302;-76
2022/08/08 08:45:06;;;;;;;2.25;1.00;;;25.70;90.70;;;;;;6632686;88;20282;-76
2022/08/08 08:55:14;;;;;;;1.40;0.70;;;26.70;88.60;;;;;;6642694;88;20274;-77
2022/08/08 09:05:15;;;;;;;1.35;0.80;;;27.40;86.50;;;;;;6624693;88;21522;-77
2022/08/08 09:15:16;;;;;;;1.17;0.77;;;27.90;82.90;;;;;;6635470;88;20197;-77
2022/08/08 09:25:19;;;;;;;1.55;0.70;;;28.10;81.70;;;;;;6626823;88;20285;-78
2022/08/08 09:35:24;;;;;;;1.27;0.82;;;28.70;80.30;;;;;;6629071;88;20221;-77
2022/08/08 09:45:35;;;;;;;1.30;0.80;;;29.10;79.00;;;;;;6633657;88;20199;-78
2022/08/08 09:55:36;;;;;;;2.17;0.60;;;29.90;75.70;;;;;;6631334;88;20233;-77
2022/08/08 10:05:37;;;;;;;1.03;0.57;;;30.50;72.90;;;;;;6641736;88;20242;-77
2022/08/08 10:15:37;;;;;;;0.90;0.50;;;31.10;72.00;;;;;;6638392;88;20551;-77
2022/08/08 10:25:41;;;;;;;1.10;0.70;;;31.70;69.20;;;;;;6638735;88;20271;-77
2022/08/08 10:35:41;;;;;;;1.20;0.60;;;32.30;68.10;;;;;;6637046;88;20205;-77
2022/08/08 10:45:44;;;;;;;0.90;0.60;;;32.20;67.30;;;;;;6631455;88;20709;-77
2022/08/08 10:55:44;;;;;;;1.10;0.50;;;33.30;65.20;;;;;;6628322;88;20188;-76
2022/08/08 11:05:49;;;;;;;1.73;0.80;;;33.00;63.00;;;;;;6634089;88;20208;-76
2022/08/08 11:15:49;;;;;;;1.10;0.60;;;33.80;62.30;;;;;;6639832;88;20250;-74
2022/08/08 11:25:52;;;;;;;1.60;0.80;;;34.40;60.80;;;;;;6637510;88;20200;-74
2022/08/08 11:35:55;;;;;;;1.35;0.80;;;34.30;60.30;;;;;;6630835;88;20237;-76
2022/08/08 11:45:55;;;;;;;1.08;0.60;;;34.50;60.10;;;;;;6643181;88;20295;-76
2022/08/08 11:55:56;;;;;;;1.20;0.80;;;34.70;60.50;;;;;;6649465;88;20447;-77
2022/08/08 12:05:56;;;;;;;1.10;0.80;;;34.70;59.80;;;;;;6628296;88;20303;-77
2022/08/08 12:16:09;;;;;;;1.25;0.82;;;35.00;58.50;;;;;;6639119;88;20347;-76
2022/08/08 12:26:11;;;;;;;1.60;0.70;;;34.60;57.50;;;;;;6631961;88;20281;-76
2022/08/08 12:36:17;;;;;;;1.00;0.70;;;34.80;57.00;;;;;;6624225;88;20225;-78
2022/08/08 12:46:23;;;;;;;1.40;0.82;;;34.70;56.80;;;;;;6631854;88;20733;-76
2022/08/08 12:56:34;;;;;;;1.00;0.70;;;35.10;55.80;;;;;;6633736;88;20767;-76
2022/08/08 13:06:35;;;;;;;1.20;0.70;;;35.20;56.80;;;;;;6624788;88;20355;-77
2022/08/08 13:16:36;;;;;;;1.20;0.80;;;34.60;55.50;;;;;;6636501;88;20336;-77
2022/08/08 13:26:37;;;;;;;1.00;0.70;;;34.30;56.30;;;;;;6633780;88;20587;-77
2022/08/08 13:36:39;;;;;;;1.20;0.70;;;33.80;56.10;;;;;;6625461;88;20194;-77
2022/08/08 13:46:58;;;;;;;1.20;0.80;;;33.50;56.60;;;;;;6635305;88;20638;-77
2022/08/08 13:57:10;;;;;;;1.20;0.80;;;34.30;56.90;;;;;;6641594;88;20249;-77
2022/08/08 14:07:11;;;;;;;1.17;0.70;;;34.00;57.50;;;;;;6636475;88;20256;-77
2022/08/08 14:17:13;;;;;;;1.23;0.80;;;34.00;57.60;;;;;;6647282;88;20311;-78
2022/08/08 14:27:29;;;;;;;1.10;0.80;;;33.90;57.90;;;;;;6632897;88;20224;-76
2022/08/08 14:37:36;;;;;;;1.40;0.90;;;33.40;57.90;;;;;;6623447;88;20678;-77
2022/08/08 14:47:59;;;;;;;1.30;0.80;;;33.00;58.30;;;;;;6623946;88;21073;-76
2022/08/08 14:58:00;;;;;;;1.30;0.90;;;33.20;57.90;;;;;;6632650;88;20178;-77
2022/08/08 15:08:01;;;;;;;1.00;0.70;;;33.20;58.00;;;;;;6632428;88;20230;-75
2022/08/08 15:18:02;;;;;;;1.42;0.82;;;32.80;58.50;;;;;;6627014;88;20205;-75
2022/08/08 15:28:08;;;;;;;1.10;0.80;;;32.90;58.10;;;;;;6631415;88;20655;-77
2022/08/08 15:38:09;;;;;;;1.30;0.82;;;32.40;58.60;;;;;;6639605;88;21200;-74
2022/08/08 15:48:09;;;;;;;1.20;0.80;;;32.40;59.00;;;;;;6628256;88;20288;-76
2022/08/08 15:58:10;;;;;;;1.20;0.70;;;32.00;59.10;;;;;;6623960;88;20676;-76
2022/08/08 16:08:11;;;;;;;2.15;1.00;;;32.00;59.00;;;;;;6641021;88;20189;-77
2022/08/08 16:18:11;;;;;;;1.10;0.80;;;31.70;58.90;;;;;;6657530;88;20730;-77
2022/08/08 16:28:12;;;;;;;1.70;0.73;;;31.20;59.20;;;;;;6634930;88;20277;-77
2022/08/08 16:38:12;;;;;;;1.63;0.80;;;31.30;59.60;;;;;;6629116;88;20251;-76
2022/08/08 16:48:13;;;;;;;1.00;0.70;;;30.80;59.80;;;;;;6628840;88;20311;-77
2022/08/08 16:58:16;;;;;;;2.08;0.90;;;30.50;60.00;;;;;;6636979;88;20241;-76
2022/08/08 17:08:16;;;;;;;1.40;0.70;;;30.10;60.40;;;;;;6644646;88;20201;-76
2022/08/08 17:18:17;;;;;;;1.60;0.90;;;29.70;61.00;;;;;;6629882;88;20218;-76
2022/08/08 17:28:17;;;;;;;1.40;0.90;;;29.70;61.50;;;;;;6644512;88;20732;-76
2022/08/08 17:38:18;;;;;;;1.20;0.82;;;30.80;60.70;;;;;;6637726;88;20734;-76
2022/08/08 17:48:18;;;;;;;2.03;1.10;;;31.50;60.40;;;;;;6640061;88;20226;-76
2022/08/08 17:58:19;;;;;;;0.90;0.70;;;29.60;61.50;;;;;;6651050;88;20213;-75
2022/08/08 18:08:20;;;;;;;1.45;0.90;;;28.30;63.60;;;;;;6660641;88;20200;-78
2022/08/08 18:18:21;;;;;;;1.37;0.90;;;27.90;65.00;;;;;;6632456;88;20816;-75
2022/08/08 18:28:21;;;;;;;1.10;0.80;;;27.40;66.20;;;;;;6648468;88;20324;-77
2022/08/08 18:38:22;;;;;;;1.20;0.70;;;27.00;66.40;;;;;;6635150;88;20205;-77
2022/08/08 18:48:24;;;;;;;1.50;0.70;;;26.70;67.20;;;;;;6638716;88;20209;-78
2022/08/08 18:58:24;;;;;;;1.25;0.80;;;26.30;68.60;;;;;;6632453;88;20322;-78
2022/08/08 19:08:25;;;;;;;1.33;0.73;;;26.00;69.40;;;;;;6638086;88;20242;-78
2022/08/08 19:18:25;;;;;;;1.73;0.90;;;25.80;70.20;;;;;;6635520;88;20301;-78
2022/08/08 19:28:26;;;;;;;1.60;0.90;;;25.50;70.80;;;;;;6659796;88;20377;-78
2022/08/08 19:38:26;;;;;;;1.43;0.60;;;25.20;71.60;;;;;;6634228;88;20239;-78
2022/08/08 19:48:27;;;;;;;1.62;0.95;;;24.90;72.60;;;;;;6642675;88;20307;-78
2022/08/08 19:58:28;;;;;;;1.52;0.80;;;24.70;73.30;;;;;;6649986;88;20201;-78
2022/08/08 20:08:29;;;;;;;1.90;0.93;;;24.40;74.50;;;;;;6641261;88;20213;-78
2022/08/08 20:18:30;;;;;;;1.77;0.88;;;24.10;75.60;;;;;;6632852;88;20227;-78
2022/08/08 20:28:31;;;;;;;1.27;0.70;;;24.10;75.20;;;;;;6663531;88;20764;-78
2022/08/08 20:38:32;;;;;;;1.33;0.80;;;23.80;75.50;;;;;;6639044;88;20230;-77
2022/08/08 20:48:32;;;;;;;1.77;1.00;;;23.60;75.80;;;;;;6631303;88;20202;-77
2022/08/08 20:58:33;;;;;;;1.50;0.80;;;23.40;76.40;;;;;;6644922;88;20285;-77
2022/08/08 21:08:33;;;;;;;1.40;0.87;;;23.30;76.60;;;;;;6652448;88;20221;-78
2022/08/08 21:18:34;;;;;;;1.20;0.70;;;23.00;77.60;;;;;;6656357;88;20229;-77
2022/08/08 21:28:35;;;;;;;1.58;0.95;;;22.80;78.20;;;;;;6642263;88;20327;-77
2022/08/08 21:38:36;;;;;;;1.70;0.80;;;22.60;78.70;;;;;;6648573;88;20654;-77
2022/08/08 21:48:38;;;;;;;1.60;0.80;;;22.50;79.60;;;;;;6633577;88;20276;-75
2022/08/08 21:58:39;;;;;;;2.65;0.82;;;22.40;80.00;;;;;;6630377;88;20197;-75
2022/08/08 22:08:39;;;;;;;1.35;0.70;;;22.10;80.90;;;;;;6633307;88;20655;-75
2022/08/08 22:18:40;;;;;;;1.65;1.17;;;22.00;81.70;;;;;;6641609;88;20246;-75
2022/08/08 22:28:41;;;;;;;1.45;0.75;;;21.80;82.80;;;;;;6634821;88;20675;-74
2022/08/08 22:38:42;;;;;;;1.48;0.73;;;21.40;83.90;;;;;;6651536;88;20264;-75
2022/08/08 22:48:48;;;;;;;1.67;0.75;;;21.10;85.90;;;;;;6627872;88;20241;-74
2022/08/08 22:58:49;;;;;;;1.30;0.60;;;21.00;87.00;;;;;;6649528;88;20622;-75
2022/08/08 23:08:50;;;;;;;1.50;0.80;;;20.90;89.10;;;;;;6641653;88;20215;-74
2022/08/08 23:18:51;;;;;;;1.50;1.00;;;20.90;90.30;;;;;;6653843;88;20571;-74
2022/08/08 23:28:51;;;;;;;1.20;0.60;;;20.90;91.00;;;;;;6622684;88;20197;-74
2022/08/08 23:38:52;;;;;;;1.30;0.82;;;20.60;91.90;;;;;;6624370;88;20226;-75
2022/08/08 23:48:52;;;;;;;1.67;1.00;;;20.30;93.60;;;;;;6635997;88;20229;-74
2022/08/08 23:58:53;;;;;;;1.55;0.80;;;20.00;95.60;;;;;;6649377;88;20193;-74
